Time;durP1;ratioP1;P1;durP2;ratioP2;P2;SDS_P1;SDS_P2;PMS_P1;PMS_P2;Temp;Humidity;BMP_temperature;BMP_pressure;BME280_temperature;BME280_humidity;BME280_pressure;Samples;Min_cycle;Max_cycle;Signal;HPM_P1;HPM_P2
2021/10/28 00:14:37;;;;;;;35.03;25.63;;;9.70;99.90;;;;;;6004594;23;20027;-41
2021/10/28 00:17:10;;;;;;;34.53;25.10;;;9.60;99.90;;;;;;6005185;23;20032;-42
2021/10/28 00:19:37;;;;;;;36.17;25.90;;;9.60;99.90;;;;;;6005038;23;20067;-42
2021/10/28 00:22:05;;;;;;;34.85;25.35;;;9.60;99.90;;;;;;6004750;23;20092;-41
2021/10/28 00:24:32;;;;;;;32.88;25.13;;;9.60;99.90;;;;;;6004092;23;20088;-41
2021/10/28 00:26:58;;;;;;;35.72;26.20;;;9.60;99.90;;;;;;6004304;23;20589;-41
2021/10/28 00:29:26;;;;;;;33.60;25.52;;;9.60;99.90;;;;;;6004325;23;20035;-41
2021/10/28 00:31:56;;;;;;;38.53;25.90;;;9.50;99.90;;;;;;5978878;23;20092;-41
2021/10/28 00:34:24;;;;;;;35.92;24.92;;;9.50;99.90;;;;;;6003578;23;20157;-41
2021/10/28 00:36:50;;;;;;;35.63;25.60;;;9.50;99.90;;;;;;6004489;23;20035;-41
2021/10/28 00:39:16;;;;;;;34.28;25.10;;;9.50;99.90;;;;;;6004365;23;20039;-41
2021/10/28 00:41:42;;;;;;;36.92;27.15;;;9.40;99.90;;;;;;6004094;23;20031;-41
2021/10/28 00:44:10;;;;;;;38.28;25.48;;;9.40;99.90;;;;;;6004327;23;20036;-41
2021/10/28 00:46:39;;;;;;;35.17;26.88;;;9.40;99.90;;;;;;6004599;23;20118;-42
2021/10/28 00:49:08;;;;;;;40.42;25.92;;;9.40;99.90;;;;;;6004733;23;20067;-41
2021/10/28 00:51:35;;;;;;;35.42;25.17;;;9.40;99.90;;;;;;6004510;23;20762;-41
2021/10/28 00:54:03;;;;;;;37.20;26.35;;;9.40;99.90;;;;;;6003185;23;20753;-41
2021/10/28 00:56:33;;;;;;;40.90;26.40;;;9.30;99.90;;;;;;6004773;23;20035;-41
2021/10/28 00:59:01;;;;;;;34.20;24.92;;;9.40;99.90;;;;;;6004114;23;20031;-41
2021/10/28 01:01:27;;;;;;;35.58;26.50;;;9.30;99.90;;;;;;6004257;23;20028;-42
2021/10/28 01:03:54;;;;;;;37.33;26.15;;;9.30;99.90;;;;;;6003170;23;20034;-42
2021/10/28 01:06:20;;;;;;;38.33;26.05;;;9.30;99.90;;;;;;5978953;23;20024;-41
2021/10/28 01:08:47;;;;;;;35.25;25.92;;;9.30;99.90;;;;;;6004385;23;20534;-43
2021/10/28 01:11:14;;;;;;;34.40;25.42;;;9.30;99.90;;;;;;6004591;23;20357;-42
2021/10/28 01:13:41;;;;;;;37.13;26.88;;;9.20;99.90;;;;;;6004392;23;20032;-42
2021/10/28 01:16:08;;;;;;;32.50;25.40;;;9.20;99.90;;;;;;6003250;23;20458;-42
2021/10/28 01:18:38;;;;;;;35.05;25.52;;;9.20;99.90;;;;;;6003855;23;20024;-42
2021/10/28 01:21:08;;;;;;;34.83;26.23;;;9.20;99.90;;;;;;6003660;23;20039;-42
2021/10/28 01:23:35;;;;;;;37.70;26.05;;;9.20;99.90;;;;;;6003101;23;20446;-42
2021/10/28 01:26:06;;;;;;;37.28;27.08;;;9.20;99.90;;;;;;6004826;23;20027;-41
2021/10/28 01:28:34;;;;;;;36.45;25.85;;;9.20;99.90;;;;;;6003948;23;20036;-42
2021/10/28 01:31:04;;;;;;;33.88;24.85;;;9.20;99.90;;;;;;6003855;23;20067;-42
2021/10/28 01:33:30;;;;;;;37.50;25.27;;;9.10;99.90;;;;;;6003067;23;20039;-43
2021/10/28 01:35:56;;;;;;;33.45;24.73;;;9.10;99.90;;;;;;6003966;23;20034;-42
2021/10/28 01:38:24;;;;;;;35.03;26.48;;;9.10;99.90;;;;;;6004664;23;20031;-41
2021/10/28 01:40:56;;;;;;;33.10;23.98;;;9.10;99.90;;;;;;6004008;23;20036;-42
2021/10/28 01:43:26;;;;;;;40.08;26.92;;;9.10;99.90;;;;;;5978616;23;20028;-42
2021/10/28 01:45:52;;;;;;;40.28;25.50;;;9.10;99.90;;;;;;6003629;23;20883;-43
2021/10/28 01:48:19;;;;;;;36.38;26.48;;;9.00;99.90;;;;;;6004000;23;20063;-42
2021/10/28 01:50:46;;;;;;;38.08;26.60;;;9.10;99.90;;;;;;6003848;23;20024;-42
2021/10/28 01:53:13;;;;;;;35.88;27.30;;;9.10;99.90;;;;;;6003396;23;20078;-42
2021/10/28 01:55:39;;;;;;;42.08;28.38;;;9.10;99.90;;;;;;6002925;23;20355;-42
2021/10/28 01:58:06;;;;;;;38.10;26.88;;;9.10;99.90;;;;;;5978207;23;20110;-42
2021/10/28 02:00:34;;;;;;;38.38;27.60;;;9.10;99.90;;;;;;6003950;23;20066;-42
2021/10/28 02:03:00;;;;;;;40.08;26.77;;;9.10;99.90;;;;;;6006490;23;20605;-42
2021/10/28 02:05:27;;;;;;;39.88;27.60;;;9.10;99.90;;;;;;6004560;23;20031;-43
2021/10/28 02:07:53;;;;;;;43.85;27.70;;;9.10;99.90;;;;;;6005845;23;20357;-41
2021/10/28 02:10:22;;;;;;;34.60;26.83;;;9.10;99.90;;;;;;5957137;23;20031;-42
2021/10/28 02:12:49;;;;;;;37.33;27.20;;;9.20;99.90;;;;;;6006115;23;20024;-41
2021/10/28 02:15:18;;;;;;;38.92;27.50;;;9.20;99.90;;;;;;5980391;23;20031;-41
2021/10/28 02:17:44;;;;;;;34.28;27.48;;;9.20;99.90;;;;;;5980404;23;20063;-41
2021/10/28 02:20:12;;;;;;;33.45;27.15;;;9.20;99.90;;;;;;6005413;23;20027;-41
2021/10/28 02:22:40;;;;;;;38.42;27.67;;;9.10;99.90;;;;;;6005660;23;20038;-42
2021/10/28 02:25:09;;;;;;;38.72;26.98;;;9.10;99.90;;;;;;5980004;23;20102;-41
2021/10/28 02:27:36;;;;;;;41.15;27.23;;;9.20;99.90;;;;;;6005632;23;20031;-41
2021/10/28 02:30:04;;;;;;;40.15;27.20;;;9.10;99.90;;;;;;6005342;23;20358;-42
2021/10/28 02:32:30;;;;;;;34.70;25.73;;;9.10;99.90;;;;;;6005582;23;20043;-41
2021/10/28 02:34:56;;;;;;;34.75;25.92;;;9.10;99.90;;;;;;6005300;23;20038;-41
2021/10/28 02:37:22;;;;;;;32.72;26.35;;;9.10;99.90;;;;;;6004645;23;20028;-41
2021/10/28 02:39:48;;;;;;;38.78;26.60;;;9.00;99.90;;;;;;6006171;23;20040;-41
2021/10/28 02:42:18;;;;;;;37.20;26.98;;;9.00;99.90;;;;;;6005361;23;20610;-41
2021/10/28 02:44:47;;;;;;;36.97;25.92;;;9.00;99.90;;;;;;6005183;23;20626;-41
2021/10/28 02:47:15;;;;;;;36.83;27.25;;;9.00;99.90;;;;;;6005725;23;20028;-42
2021/10/28 02:49:43;;;;;;;34.65;25.13;;;9.00;99.90;;;;;;5979796;23;20107;-42
2021/10/28 02:52:10;;;;;;;38.15;25.67;;;8.90;99.90;;;;;;6005921;23;20032;-41
2021/10/28 02:54:37;;;;;;;33.60;24.73;;;8.90;99.90;;;;;;6005367;23;20037;-41
2021/10/28 02:57:08;;;;;;;35.10;24.50;;;8.90;99.90;;;;;;6004765;23;20028;-41
2021/10/28 02:59:34;;;;;;;34.53;24.02;;;8.90;99.90;;;;;;6004115;23;20032;-42
2021/10/28 03:02:01;;;;;;;37.58;26.08;;;8.90;99.90;;;;;;6004802;23;20031;-42
2021/10/28 03:04:28;;;;;;;32.75;24.15;;;8.90;99.90;;;;;;6005289;23;20110;-42
2021/10/28 03:06:54;;;;;;;33.53;25.65;;;8.90;99.90;;;;;;6004527;23;20088;-42
2021/10/28 03:09:23;;;;;;;35.70;25.05;;;8.90;99.90;;;;;;6004660;23;20031;-43
2021/10/28 03:11:52;;;;;;;40.00;24.98;;;8.90;99.90;;;;;;6004805;23;20034;-43
2021/10/28 03:14:22;;;;;;;33.00;24.80;;;8.90;99.90;;;;;;6005039;23;20027;-42
2021/10/28 03:17:00;;;;;;;32.83;23.70;;;8.80;99.90;;;;;;6004685;23;20039;-43
2021/10/28 03:27:26;;;;;;;32.90;23.38;;;8.80;99.90;;;;;;6003927;23;20028;-42
2021/10/28 03:29:53;;;;;;;30.88;24.40;;;8.80;99.90;;;;;;6004286;23;20037;-42
2021/10/28 03:32:20;;;;;;;33.92;23.75;;;8.80;99.90;;;;;;6003817;23;20406;-42
2021/10/28 03:34:48;;;;;;;31.80;24.23;;;8.80;99.90;;;;;;6005398;23;20028;-44
2021/10/28 03:37:27;;;;;;;31.92;22.90;;;8.70;99.90;;;;;;6004844;23;20032;-42
2021/10/28 04:30:23;;;;;;;32.65;24.90;;;8.50;99.90;;;;;;5986412;23;20035;-42
2021/10/28 04:32:51;;;;;;;30.95;24.70;;;8.50;99.90;;;;;;6004735;23;20050;-42
2021/10/28 04:35:17;;;;;;;32.45;25.08;;;8.50;99.90;;;;;;6004331;23;20250;-43
2021/10/28 04:37:45;;;;;;;35.40;25.48;;;8.50;99.90;;;;;;6003546;23;20027;-42
2021/10/28 04:40:13;;;;;;;33.25;24.85;;;8.50;99.90;;;;;;6004262;23;20038;-43
2021/10/28 04:42:41;;;;;;;34.88;25.23;;;8.50;99.90;;;;;;6004669;23;20406;-42
2021/10/28 04:45:08;;;;;;;29.77;23.95;;;8.40;99.90;;;;;;6004618;23;20035;-42
2021/10/28 04:47:34;;;;;;;32.78;25.08;;;8.40;99.90;;;;;;6003526;23;20038;-43
2021/10/28 04:50:00;;;;;;;35.08;25.08;;;8.40;99.90;;;;;;5978419;23;20032;-41
2021/10/28 04:52:26;;;;;;;38.47;26.77;;;8.40;99.90;;;;;;6003724;23;20437;-41
2021/10/28 04:54:52;;;;;;;33.42;24.27;;;8.40;99.90;;;;;;6004065;23;20080;-43
2021/10/28 04:57:19;;;;;;;34.38;26.33;;;8.40;99.90;;;;;;6003618;23;20028;-42
2021/10/28 04:59:45;;;;;;;38.58;26.98;;;8.40;99.90;;;;;;6003753;23;20058;-41
2021/10/28 05:02:11;;;;;;;34.88;26.25;;;8.40;99.90;;;;;;6003564;23;20509;-41
2021/10/28 05:04:37;;;;;;;34.33;25.08;;;8.30;99.90;;;;;;6004062;23;20028;-42
2021/10/28 05:07:03;;;;;;;39.47;26.75;;;8.40;99.90;;;;;;6004112;23;20605;-42
2021/10/28 05:09:30;;;;;;;38.10;28.20;;;8.30;99.90;;;;;;6004269;23;20032;-42
2021/10/28 05:11:56;;;;;;;37.72;27.25;;;8.30;99.90;;;;;;6004015;23;20120;-45
2021/10/28 05:14:23;;;;;;;40.63;28.08;;;8.30;99.90;;;;;;6004367;23;20071;-41
2021/10/28 05:16:56;;;;;;;37.75;26.67;;;8.30;99.90;;;;;;6003466;23;20088;-41
2021/10/28 05:19:22;;;;;;;39.75;27.13;;;8.30;99.90;;;;;;6003751;23;20035;-41
2021/10/28 05:21:48;;;;;;;40.22;29.38;;;8.30;99.90;;;;;;6004287;23;20024;-41
2021/10/28 05:24:15;;;;;;;40.00;28.20;;;8.30;99.90;;;;;;6003690;23;20491;-42
2021/10/28 05:26:41;;;;;;;37.60;27.58;;;8.30;99.90;;;;;;6002963;23;20096;-43
2021/10/28 05:29:07;;;;;;;39.42;28.67;;;8.30;99.90;;;;;;6003272;23;20331;-41
2021/10/28 05:31:34;;;;;;;41.80;29.75;;;8.30;99.90;;;;;;5978613;23;20098;-41
2021/10/28 05:34:00;;;;;;;36.25;27.00;;;8.30;99.90;;;;;;6004160;23;20090;-41
2021/10/28 05:36:29;;;;;;;41.35;28.27;;;8.20;99.90;;;;;;6005161;23;20406;-42
2021/10/28 05:38:55;;;;;;;40.35;28.35;;;8.20;99.90;;;;;;6005685;23;20104;-42
2021/10/28 05:41:24;;;;;;;38.20;29.70;;;8.20;99.90;;;;;;6006242;23;20035;-43
2021/10/28 05:43:53;;;;;;;37.63;28.80;;;8.10;99.90;;;;;;6005503;23;20172;-42
2021/10/28 05:46:19;;;;;;;38.08;27.63;;;8.10;99.90;;;;;;6006523;23;20043;-42
2021/10/28 05:48:45;;;;;;;40.67;29.88;;;8.20;99.90;;;;;;6005651;23;20028;-41
2021/10/28 05:51:13;;;;;;;36.22;27.33;;;8.10;99.90;;;;;;6005559;23;20767;-41
2021/10/28 05:53:39;;;;;;;40.28;28.60;;;8.10;99.90;;;;;;6005885;23;20046;-42
2021/10/28 05:56:05;;;;;;;40.35;28.17;;;8.10;99.90;;;;;;6005757;23;20346;-42
2021/10/28 05:58:35;;;;;;;35.40;27.60;;;8.00;99.90;;;;;;6006421;23;20096;-44
2021/10/28 06:01:01;;;;;;;38.83;27.17;;;8.00;99.90;;;;;;6006103;23;20027;-42
2021/10/28 06:03:31;;;;;;;37.72;30.38;;;8.00;99.90;;;;;;6005932;23;20122;-42
2021/10/28 06:05:57;;;;;;;47.83;30.17;;;8.00;99.90;;;;;;6005936;23;20032;-42
2021/10/28 06:08:24;;;;;;;39.40;28.67;;;8.00;99.90;;;;;;6005204;23;20129;-42
2021/10/28 06:10:50;;;;;;;44.40;30.15;;;7.90;99.90;;;;;;6006871;23;20027;-42
2021/10/28 06:13:16;;;;;;;40.60;28.98;;;7.90;99.90;;;;;;6006247;23;20412;-42
2021/10/28 06:15:43;;;;;;;42.65;30.20;;;7.90;99.90;;;;;;6006496;23;20032;-42
2021/10/28 06:20:40;;;;;;;36.20;27.77;;;7.90;99.90;;;;;;6005790;23;20114;-41
2021/10/28 06:23:06;;;;;;;41.78;28.92;;;7.90;99.90;;;;;;6006593;23;20051;-42
2021/10/28 06:25:33;;;;;;;45.28;30.63;;;7.80;99.90;;;;;;6005282;23;20031;-42
2021/10/28 06:27:59;;;;;;;44.97;30.23;;;7.90;99.90;;;;;;6004776;23;20026;-41
2021/10/28 06:30:25;;;;;;;46.13;30.95;;;7.80;99.90;;;;;;6005359;23;20434;-42
2021/10/28 06:32:55;;;;;;;48.88;30.25;;;7.90;99.90;;;;;;6005572;23;20034;-41
2021/10/28 06:35:22;;;;;;;46.75;30.67;;;7.90;99.90;;;;;;6006021;23;20063;-41
2021/10/28 06:37:50;;;;;;;44.55;31.73;;;7.90;99.90;;;;;;6005319;23;20066;-43
2021/10/28 06:40:23;;;;;;;42.85;28.05;;;7.90;99.90;;;;;;6004999;23;20031;-41
2021/10/28 06:42:50;;;;;;;44.03;29.77;;;7.90;99.90;;;;;;6005646;23;20027;-41
2021/10/28 06:45:18;;;;;;;47.42;30.52;;;7.90;99.90;;;;;;6005519;23;20728;-41
2021/10/28 06:47:44;;;;;;;43.65;27.90;;;8.00;99.90;;;;;;6005725;23;20032;-42
2021/10/28 06:50:16;;;;;;;43.78;28.60;;;8.00;99.90;;;;;;6005073;23;20618;-41
2021/10/28 06:55:36;;;;;;;39.35;26.88;;;8.00;99.90;;;;;;6005119;23;20194;-41
2021/10/28 07:03:37;;;;;;;37.88;26.42;;;8.10;99.90;;;;;;6004779;23;20028;-42
2021/10/28 07:06:20;;;;;;;41.45;26.98;;;8.10;99.90;;;;;;6005397;23;20144;-41
2021/10/28 07:08:50;;;;;;;44.88;28.38;;;8.10;99.90;;;;;;6003769;23;20028;-41
2021/10/28 07:11:23;;;;;;;37.60;26.20;;;8.10;99.90;;;;;;6004711;23;20027;-42
2021/10/28 07:13:51;;;;;;;34.85;25.88;;;8.10;99.90;;;;;;6004625;23;20462;-40
2021/10/28 07:16:31;;;;;;;38.58;25.20;;;8.10;99.90;;;;;;6004932;23;20047;-40
2021/10/28 07:19:20;;;;;;;37.97;25.38;;;8.20;99.90;;;;;;6004220;23;20028;-41
2021/10/28 08:05:41;;;;;;;47.10;21.60;;;11.30;99.90;;;;;;6003863;23;20107;-42
2021/10/28 08:23:48;;;;;;;24.13;14.75;;;15.00;99.90;;;;;;5913425;24;20035;-42
2021/10/28 08:29:05;;;;;;;16.83;12.77;;;15.50;99.90;;;;;;5948032;24;20141;-44
2021/10/28 08:31:31;;;;;;;17.25;12.80;;;15.80;99.90;;;;;;5947775;24;20032;-42
2021/10/28 08:33:57;;;;;;;16.30;12.82;;;15.80;99.90;;;;;;5947770;24;20657;-42
2021/10/28 08:36:28;;;;;;;18.15;13.38;;;16.00;99.90;;;;;;5947995;24;20032;-41
2021/10/28 08:38:55;;;;;;;17.50;13.48;;;16.10;99.90;;;;;;5947998;24;20040;-43
2021/10/28 08:41:23;;;;;;;14.85;13.10;;;15.90;99.90;;;;;;5946978;24;20476;-43
2021/10/28 08:43:51;;;;;;;14.80;12.70;;;16.50;99.90;;;;;;5948861;24;20122;-42
2021/10/28 08:46:18;;;;;;;15.50;12.18;;;16.60;99.90;;;;;;5948358;24;20036;-42
2021/10/28 08:48:52;;;;;;;16.70;13.13;;;17.10;99.90;;;;;;5948475;24;20078;-42
2021/10/28 08:54:20;;;;;;;16.67;12.77;;;17.50;99.90;;;;;;5948617;24;20048;-43
2021/10/28 08:56:54;;;;;;;16.48;12.85;;;17.60;99.90;;;;;;5944444;24;20068;-43
2021/10/28 09:24:45;;;;;;;11.85;10.63;;;20.40;91.50;;;;;;5949020;24;20024;-43
2021/10/28 09:27:23;;;;;;;12.38;10.10;;;20.60;99.90;;;;;;5949130;24;20115;-45
2021/10/28 09:32:54;;;;;;;11.57;9.85;;;21.00;78.70;;;;;;5949290;24;20048;-45
2021/10/28 09:44:21;;;;;;;10.60;9.52;;;21.80;78.30;;;;;;5949413;24;20024;-44
2021/10/28 09:46:48;;;;;;;13.98;10.73;;;21.70;78.50;;;;;;5948793;24;20735;-44
2021/10/28 10:00:13;;;;;;;11.88;10.68;;;21.80;72.60;;;;;;5949288;24;20067;-44
2021/10/28 10:02:53;;;;;;;10.38;9.27;;;21.90;71.90;;;;;;5948541;24;20033;-45
2021/10/28 10:05:21;;;;;;;10.63;9.40;;;22.10;74.90;;;;;;5948985;24;20085;-46
2021/10/28 10:07:53;;;;;;;15.60;10.63;;;22.30;74.50;;;;;;5924705;24;20472;-44
2021/10/28 10:10:24;;;;;;;11.07;9.10;;;22.60;72.30;;;;;;5950492;24;20028;-44
2021/10/28 10:12:51;;;;;;;;;;;22.20;68.40;;;;;;5950916;24;20582;-45
2021/10/28 10:15:17;;;;;;;11.55;9.70;;;22.30;65.60;;;;;;5950370;24;19930;-43
2021/10/28 10:17:55;;;;;;;12.85;10.40;;;22.30;68.90;;;;;;5977910;24;20070;-45
2021/10/28 10:20:32;;;;;;;10.45;9.35;;;22.50;64.70;;;;;;5977377;24;20071;-47
2021/10/28 12:24:53;;;;;;;6.85;4.32;;;26.50;47.70;;;;;;5976143;24;20397;-45
2021/10/28 12:44:55;;;;;;;7.40;4.95;;;26.20;48.90;;;;;;5975830;24;20604;-47
2021/10/28 12:53:04;;;;;;;8.77;7.28;;;27.10;48.50;;;;;;5974980;24;20526;-47
2021/10/28 14:38:16;;;;;;;10.70;9.57;;;24.80;50.30;;;;;;5863363;24;20037;-49
2021/10/28 15:30:14;;;;;;;15.52;11.13;;;19.10;72.70;;;;;;5809862;24;20117;-49
2021/10/28 15:35:38;;;;;;;10.70;7.47;;;18.20;84.30;;;;;;5809366;24;20141;-48
2021/10/28 15:40:59;;;;;;;15.45;12.73;;;17.60;94.50;;;;;;5809828;24;20466;-48
2021/10/28 16:24:34;;;;;;;11.63;8.47;;;14.80;99.90;;;;;;5862943;24;20143;-48
2021/10/28 16:27:03;;;;;;;8.77;6.47;;;14.70;99.90;;;;;;5839092;24;20279;-48
2021/10/28 16:29:31;;;;;;;10.18;7.57;;;14.60;99.90;;;;;;5862265;24;20037;-48
2021/10/28 16:31:58;;;;;;;8.82;6.38;;;14.50;99.90;;;;;;5861949;24;20061;-47
2021/10/28 16:34:27;;;;;;;8.30;6.13;;;14.40;99.90;;;;;;5862356;24;20045;-49
2021/10/28 16:36:54;;;;;;;9.65;6.25;;;14.20;99.90;;;;;;5861831;24;20038;-46
2021/10/28 16:39:21;;;;;;;8.77;6.30;;;14.10;99.90;;;;;;5861495;24;20038;-46
2021/10/28 16:41:50;;;;;;;10.90;7.72;;;14.00;99.90;;;;;;5862000;24;20344;-45
2021/10/28 16:44:17;;;;;;;7.45;5.75;;;13.80;99.90;;;;;;5840289;24;20832;-48
2021/10/28 16:46:45;;;;;;;8.57;5.55;;;13.80;99.90;;;;;;5838851;24;20114;-45
2021/10/28 16:49:15;;;;;;;10.45;5.75;;;13.70;99.90;;;;;;5862031;24;20038;-46
2021/10/28 16:51:43;;;;;;;8.13;6.25;;;13.70;99.90;;;;;;5861936;24;20076;-47
2021/10/28 16:54:09;;;;;;;10.23;6.47;;;13.60;99.90;;;;;;5861428;24;20490;-46
2021/10/28 16:56:38;;;;;;;7.90;6.32;;;13.50;99.90;;;;;;5861726;24;20072;-46
2021/10/28 16:59:04;;;;;;;9.75;6.35;;;13.40;99.90;;;;;;5940897;24;20111;-47
2021/10/28 17:01:30;;;;;;;11.52;6.15;;;13.30;99.90;;;;;;5974699;24;20032;-46
2021/10/28 17:03:59;;;;;;;11.70;6.47;;;13.30;99.90;;;;;;5975168;24;20024;-46
2021/10/28 17:06:25;;;;;;;9.35;5.95;;;13.20;99.90;;;;;;5974565;24;20039;-46
2021/10/28 17:08:57;;;;;;;10.18;7.07;;;13.10;99.90;;;;;;5975835;24;20028;-45
2021/10/28 17:11:26;;;;;;;8.75;6.47;;;13.10;99.90;;;;;;5975293;24;20043;-46
2021/10/28 17:13:53;;;;;;;7.38;6.18;;;13.00;99.90;;;;;;5975487;24;20028;-46
2021/10/28 17:16:22;;;;;;;9.38;6.85;;;13.00;99.90;;;;;;5975248;24;20032;-45
2021/10/28 17:18:48;;;;;;;10.15;6.70;;;12.90;99.90;;;;;;5974468;24;20067;-46
2021/10/28 17:21:14;;;;;;;10.52;6.60;;;12.90;99.90;;;;;;5975617;24;20031;-48
2021/10/28 17:23:43;;;;;;;10.30;6.85;;;12.80;99.90;;;;;;5975656;24;20071;-49
2021/10/28 17:26:14;;;;;;;10.15;7.25;;;12.80;99.90;;;;;;5975807;24;20040;-48
2021/10/28 17:28:43;;;;;;;10.40;7.73;;;12.80;99.90;;;;;;5974243;24;20043;-48
2021/10/28 17:31:10;;;;;;;9.45;7.22;;;12.70;99.90;;;;;;5951444;24;20273;-45
2021/10/28 17:33:36;;;;;;;9.65;7.63;;;12.70;99.90;;;;;;5976786;24;20035;-46
2021/10/28 17:36:04;;;;;;;9.68;8.15;;;12.60;99.90;;;;;;5977339;24;20399;-45
2021/10/28 17:38:30;;;;;;;9.75;7.32;;;12.60;99.90;;;;;;5976772;24;20027;-46
2021/10/28 17:40:57;;;;;;;8.73;6.95;;;12.60;99.90;;;;;;5976536;24;20359;-47
2021/10/28 17:43:25;;;;;;;10.40;7.30;;;12.50;99.90;;;;;;5977146;24;20032;-47
2021/10/28 17:45:56;;;;;;;9.70;6.93;;;12.40;99.90;;;;;;5977250;24;20032;-47
2021/10/28 17:48:28;;;;;;;10.90;7.73;;;12.40;99.90;;;;;;5976868;24;20029;-45
2021/10/28 17:50:55;;;;;;;11.82;7.72;;;12.50;99.90;;;;;;5952188;24;20360;-47
2021/10/28 17:53:21;;;;;;;10.45;7.55;;;12.40;99.90;;;;;;5976493;24;20032;-50
2021/10/28 17:55:47;;;;;;;12.18;8.75;;;12.30;99.90;;;;;;5976118;24;20028;-45
2021/10/28 17:58:16;;;;;;;11.77;7.95;;;12.40;99.90;;;;;;5975375;24;20036;-46
2021/10/28 18:00:45;;;;;;;10.15;7.43;;;12.40;99.90;;;;;;5976472;24;20028;-47
2021/10/28 18:03:11;;;;;;;10.95;8.85;;;12.30;99.90;;;;;;5950465;24;20028;-45
2021/10/28 18:05:39;;;;;;;11.30;8.68;;;12.30;99.90;;;;;;5976801;24;20039;-47
2021/10/28 18:08:07;;;;;;;13.20;8.85;;;12.20;99.90;;;;;;5975620;24;20036;-46
2021/10/28 18:10:34;;;;;;;9.63;8.63;;;12.20;99.90;;;;;;5975252;24;20032;-48
2021/10/28 18:13:01;;;;;;;10.95;9.32;;;12.10;99.90;;;;;;5976199;24;20054;-47
2021/10/28 18:15:28;;;;;;;12.88;8.95;;;12.10;99.90;;;;;;5977371;24;20132;-45
2021/10/28 18:17:54;;;;;;;12.88;9.60;;;12.10;99.90;;;;;;5976747;24;20387;-46
2021/10/28 18:20:23;;;;;;;15.57;9.55;;;12.20;99.90;;;;;;5976566;24;20028;-46
2021/10/28 18:22:53;;;;;;;12.40;9.75;;;12.20;99.90;;;;;;5976840;24;20043;-51
2021/10/28 18:25:21;;;;;;;11.63;8.45;;;12.10;99.90;;;;;;5977202;24;20038;-47
2021/10/28 18:27:47;;;;;;;13.75;11.35;;;12.20;99.90;;;;;;5976861;24;20032;-47
2021/10/28 18:30:16;;;;;;;14.57;9.23;;;12.20;99.90;;;;;;5976805;24;20342;-44
2021/10/28 18:32:43;;;;;;;15.35;9.68;;;12.10;99.90;;;;;;5976645;24;20039;-47
2021/10/28 18:35:13;;;;;;;13.68;9.13;;;12.20;99.90;;;;;;5976810;24;20028;-47
2021/10/28 18:37:44;;;;;;;12.27;9.18;;;12.20;99.90;;;;;;5976133;24;20115;-46
2021/10/28 18:40:11;;;;;;;13.82;9.50;;;12.20;99.90;;;;;;5977396;24;20036;-45
2021/10/28 18:42:38;;;;;;;11.27;9.20;;;12.20;99.90;;;;;;5975630;24;20032;-46
2021/10/28 18:45:10;;;;;;;12.43;10.07;;;12.20;99.90;;;;;;5976248;24;20051;-46
2021/10/28 18:47:36;;;;;;;15.57;10.00;;;12.30;99.90;;;;;;5975587;24;20470;-47
2021/10/28 18:50:05;;;;;;;12.07;9.95;;;12.30;99.90;;;;;;5975686;24;20035;-45
2021/10/28 18:52:31;;;;;;;15.50;10.63;;;12.30;99.90;;;;;;5976926;24;20028;-46
2021/10/28 18:54:58;;;;;;;12.50;9.60;;;12.20;99.90;;;;;;5976254;24;20112;-50
2021/10/28 18:57:25;;;;;;;13.40;10.68;;;12.10;99.90;;;;;;5976287;24;20043;-48
2021/10/28 18:59:53;;;;;;;12.98;10.40;;;12.10;99.90;;;;;;5975813;24;20169;-46
2021/10/28 19:02:19;;;;;;;12.85;10.27;;;12.10;99.90;;;;;;5976054;24;20120;-45
2021/10/28 19:04:48;;;;;;;14.70;12.25;;;12.10;99.90;;;;;;5977020;24;20147;-45
2021/10/28 19:07:15;;;;;;;13.38;10.98;;;12.10;99.90;;;;;;5951737;24;20028;-46
2021/10/28 19:09:41;;;;;;;12.48;11.18;;;12.00;99.90;;;;;;5975921;24;20038;-45
2021/10/28 19:12:07;;;;;;;15.18;11.32;;;12.00;99.90;;;;;;5975443;24;20457;-45
2021/10/28 19:14:35;;;;;;;14.30;11.32;;;12.00;99.90;;;;;;5975891;24;20032;-47
2021/10/28 19:17:01;;;;;;;17.25;13.07;;;12.00;99.90;;;;;;5976779;24;20024;-46
2021/10/28 19:19:27;;;;;;;15.07;11.48;;;12.00;99.90;;;;;;5976390;24;20552;-45
2021/10/28 19:21:58;;;;;;;13.63;12.23;;;11.90;99.90;;;;;;5976001;24;20454;-46
2021/10/28 19:24:24;;;;;;;13.45;12.05;;;11.80;99.90;;;;;;5976370;24;20032;-47
2021/10/28 19:26:55;;;;;;;17.13;13.70;;;11.80;99.90;;;;;;5976345;24;20043;-46
2021/10/28 19:29:23;;;;;;;15.10;12.18;;;11.80;99.90;;;;;;5975724;24;20526;-45
2021/10/28 19:31:56;;;;;;;15.18;12.68;;;11.80;99.90;;;;;;5976771;24;20028;-50
2021/10/28 19:34:23;;;;;;;12.85;11.25;;;11.80;99.90;;;;;;5975554;24;20880;-44
2021/10/28 19:36:58;;;;;;;14.50;12.25;;;11.70;99.90;;;;;;5975906;24;20067;-45
2021/10/28 19:39:52;;;;;;;16.05;13.10;;;11.80;99.90;;;;;;5976001;24;20059;-46
2021/10/28 19:47:50;;;;;;;14.70;13.18;;;11.70;99.90;;;;;;5862942;24;20057;-45
2021/10/28 19:50:17;;;;;;;18.83;14.38;;;11.70;99.90;;;;;;5863191;24;20448;-44
2021/10/28 19:52:46;;;;;;;18.90;14.38;;;11.70;99.90;;;;;;5862778;24;20104;-46
2021/10/28 19:55:17;;;;;;;15.88;14.02;;;11.70;99.90;;;;;;5840429;24;20495;-47
2021/10/28 19:57:49;;;;;;;16.70;14.75;;;11.70;99.90;;;;;;5862764;24;20038;-48
2021/10/28 20:21:10;;;;;;;20.10;16.88;;;11.50;99.90;;;;;;5890371;24;20133;-46
2021/10/28 20:23:37;;;;;;;18.25;16.40;;;11.50;99.90;;;;;;5915215;24;20029;-47
2021/10/28 20:26:03;;;;;;;18.42;16.42;;;11.50;99.90;;;;;;5951436;24;20028;-47
2021/10/28 20:28:37;;;;;;;20.33;17.35;;;11.50;99.90;;;;;;5975457;24;20241;-45
2021/10/28 20:31:04;;;;;;;19.88;17.77;;;11.50;99.90;;;;;;5974969;24;20176;-45
2021/10/28 20:33:32;;;;;;;20.92;16.52;;;11.50;99.90;;;;;;5976158;24;20347;-47
2021/10/28 20:37:04;;;;;;;22.88;16.65;;;11.40;99.90;;;;;;5976833;24;20032;-48
2021/10/28 20:38:52;;;;;;;19.23;16.55;;;11.50;99.90;;;;;;5975379;24;20362;-47
2021/10/28 20:41:18;;;;;;;21.30;16.75;;;11.40;99.90;;;;;;5975064;24;20032;-46
2021/10/28 20:43:44;;;;;;;20.40;16.98;;;11.30;99.90;;;;;;5975513;24;20050;-45
2021/10/28 20:46:18;;;;;;;21.45;17.25;;;11.30;99.90;;;;;;5975525;24;20421;-46
2021/10/28 20:48:44;;;;;;;23.10;17.48;;;11.20;99.90;;;;;;5975387;24;20116;-45
2021/10/28 20:51:11;;;;;;;20.35;18.05;;;11.20;99.90;;;;;;5975341;24;20522;-45
2021/10/28 20:53:37;;;;;;;21.13;18.52;;;11.20;99.90;;;;;;5975024;24;20036;-46
2021/10/28 20:56:06;;;;;;;19.55;17.20;;;11.20;99.90;;;;;;5974840;24;20043;-48
2021/10/28 20:58:32;;;;;;;20.33;18.13;;;11.20;99.90;;;;;;5975194;24;20034;-46
2021/10/28 21:00:58;;;;;;;21.52;17.40;;;11.10;99.90;;;;;;5949697;24;20346;-47
2021/10/28 21:03:24;;;;;;;20.30;17.95;;;11.10;99.90;;;;;;5975124;24;20643;-45
2021/10/28 21:05:51;;;;;;;22.45;18.17;;;11.10;99.90;;;;;;5976349;24;20028;-46
2021/10/28 21:08:18;;;;;;;21.70;17.85;;;11.10;99.90;;;;;;5978547;24;20028;-46
2021/10/28 21:10:44;;;;;;;21.67;19.35;;;11.00;99.90;;;;;;5977839;24;20035;-46
2021/10/28 21:13:10;;;;;;;22.30;19.45;;;11.10;99.90;;;;;;5978900;24;20100;-46
2021/10/28 21:15:37;;;;;;;21.45;18.23;;;11.00;99.90;;;;;;5980011;24;20035;-45
2021/10/28 21:18:04;;;;;;;21.65;19.33;;;11.00;99.90;;;;;;5978977;24;20103;-45
2021/10/28 21:20:30;;;;;;;23.05;19.20;;;10.90;99.90;;;;;;5978472;24;20794;-46
2021/10/28 21:22:56;;;;;;;24.95;19.27;;;10.90;99.90;;;;;;5978906;24;20032;-48
2021/10/28 21:25:23;;;;;;;21.63;18.33;;;10.80;99.90;;;;;;5979531;24;20780;-45
2021/10/28 21:27:50;;;;;;;21.73;19.17;;;10.80;99.90;;;;;;5980023;24;20028;-46
2021/10/28 21:30:16;;;;;;;24.02;18.92;;;10.70;99.90;;;;;;5979659;24;20043;-48
2021/10/28 21:32:42;;;;;;;25.20;20.00;;;10.60;99.90;;;;;;5978829;24;20028;-40
2021/10/28 21:35:14;;;;;;;25.13;20.33;;;10.70;99.90;;;;;;5980066;24;20135;-40
2021/10/28 21:37:42;;;;;;;23.92;19.45;;;10.70;99.90;;;;;;5979739;24;20462;-40
2021/10/28 21:40:10;;;;;;;22.58;20.02;;;10.60;99.90;;;;;;5979745;24;20032;-41
2021/10/28 21:42:37;;;;;;;23.80;20.58;;;10.60;99.90;;;;;;5954923;24;20106;-41
2021/10/28 21:45:05;;;;;;;22.27;19.83;;;10.60;99.90;;;;;;5979062;24;20031;-41
2021/10/28 21:47:32;;;;;;;26.13;21.75;;;10.60;99.90;;;;;;5979591;24;20120;-40
2021/10/28 21:49:59;;;;;;;24.67;21.95;;;10.50;99.90;;;;;;5979174;24;20031;-40
2021/10/28 21:52:32;;;;;;;23.88;20.08;;;10.50;99.90;;;;;;5931899;24;20099;-40
2021/10/28 21:55:10;;;;;;;25.35;21.58;;;10.50;99.90;;;;;;5979804;24;20084;-40
2021/10/28 22:00:58;;;;;;;25.55;21.33;;;10.50;99.90;;;;;;5979124;24;20032;-41
2021/10/28 22:25:06;;;;;;;27.15;22.52;;;10.30;99.90;;;;;;5977963;24;20028;-41
2021/10/28 22:27:33;;;;;;;25.13;21.88;;;10.30;99.90;;;;;;5978651;24;20103;-40
2021/10/28 22:30:00;;;;;;;25.52;21.45;;;10.30;99.90;;;;;;5978371;24;20103;-40
2021/10/28 22:32:28;;;;;;;25.60;21.20;;;10.30;99.90;;;;;;5978031;24;20028;-40